Time;durP1;ratioP1;P1;durP2;ratioP2;P2;SDS_P1;SDS_P2;PMS_P1;PMS_P2;Temp;Humidity;BMP_temperature;BMP_pressure;BME280_temperature;BME280_humidity;BME280_pressure;Samples;Min_cycle;Max_cycle;Signal;HPM_P1;HPM_P2
2023/02/16 00:01:35;;;;;;;72.82;34.22;;;0.30;99.90;;;;;;5006103;28;20050;-74
2023/02/16 00:04:14;;;;;;;81.60;33.58;;;0.40;99.90;;;;;;5028792;28;20495;-73
2023/02/16 00:06:41;;;;;;;76.38;33.58;;;0.40;99.90;;;;;;5013832;28;21575;-73
2023/02/16 00:09:07;;;;;;;72.22;31.88;;;0.30;99.90;;;;;;5032899;28;20041;-74
2023/02/16 00:14:23;;;;;;;81.68;32.25;;;0.40;99.90;;;;;;5027557;28;20538;-72
2023/02/16 00:16:49;;;;;;;80.18;31.58;;;0.30;99.90;;;;;;5009971;28;20443;-73
2023/02/16 00:19:33;;;;;;;70.07;31.25;;;0.20;99.90;;;;;;5033134;28;20040;-74
2023/02/16 00:22:01;;;;;;;76.10;33.72;;;0.10;99.90;;;;;;5031171;28;20099;-72
2023/02/16 00:24:29;;;;;;;70.32;32.50;;;0.20;99.90;;;;;;5012033;28;20411;-73
2023/02/16 00:26:57;;;;;;;77.30;32.78;;;0.20;99.90;;;;;;5017498;28;20113;-74
2023/02/16 00:29:23;;;;;;;82.55;32.83;;;0.10;99.90;;;;;;5020151;28;20040;-74
2023/02/16 00:31:50;;;;;;;82.15;33.78;;;0.20;99.90;;;;;;5031443;28;20052;-73
2023/02/16 00:34:39;;;;;;;80.85;32.95;;;0.20;99.90;;;;;;5017572;28;20357;-74
2023/02/16 00:37:08;;;;;;;91.72;33.58;;;0.10;99.90;;;;;;5017858;28;20040;-74
2023/02/16 00:39:36;;;;;;;80.15;34.03;;;0.00;99.90;;;;;;5019448;28;20477;-73
2023/02/16 00:42:09;;;;;;;70.20;32.08;;;0.00;99.90;;;;;;5016136;28;20045;-74
2023/02/16 00:44:40;;;;;;;88.47;36.95;;;0.00;99.90;;;;;;5012484;28;20041;-73
2023/02/16 00:47:26;;;;;;;87.05;34.58;;;0.00;99.90;;;;;;5017702;28;20047;-73
2023/02/16 00:49:55;;;;;;;86.10;34.95;;;0.00;99.90;;;;;;5036012;28;20060;-74
2023/02/16 00:52:30;;;;;;;89.65;36.78;;;0.00;99.90;;;;;;5015537;28;20384;-73
2023/02/16 00:54:57;;;;;;;;;;;0.00;99.90;;;;;;5019951;28;20350;-74
2023/02/16 00:57:26;;;;;;;82.90;34.58;;;0.00;99.90;;;;;;5025637;28;19928;-74
2023/02/16 00:59:59;;;;;;;92.75;37.13;;;0.10;99.90;;;;;;5015785;28;20049;-74
2023/02/16 01:02:26;;;;;;;99.50;38.65;;;0.10;99.90;;;;;;5012931;28;20134;-74
2023/02/16 01:04:54;;;;;;;89.03;36.42;;;0.30;99.90;;;;;;5015965;28;20041;-73
2023/02/16 01:12:51;;;;;;;83.57;34.20;;;0.00;99.90;;;;;;5032275;28;20514;-74
2023/02/16 01:15:22;;;;;;;81.45;33.90;;;0.00;99.90;;;;;;5032837;28;20211;-74
2023/02/16 01:17:50;;;;;;;82.25;34.35;;;0.00;99.90;;;;;;5020317;28;20049;-73
2023/02/16 01:20:23;;;;;;;81.93;36.45;;;0.00;99.90;;;;;;5012337;28;20212;-73
2023/02/16 01:22:50;;;;;;;93.95;38.13;;;-0.10;99.90;;;;;;5032611;28;20126;-73
2023/02/16 01:25:17;;;;;;;91.68;38.08;;;0.00;99.90;;;;;;5030749;28;20055;-74
2023/02/16 01:27:45;;;;;;;94.50;40.03;;;0.00;99.90;;;;;;5030618;28;20215;-73
2023/02/16 01:30:19;;;;;;;102.68;40.60;;;0.00;99.90;;;;;;5034468;28;20133;-73
2023/02/16 01:32:50;;;;;;;90.93;38.15;;;0.10;99.90;;;;;;5029177;28;20048;-73
2023/02/16 01:35:29;;;;;;;102.68;42.03;;;0.10;99.90;;;;;;5014331;28;20044;-74
2023/02/16 01:37:56;;;;;;;96.57;41.03;;;0.10;99.90;;;;;;5000716;28;20055;-73
2023/02/16 01:40:28;;;;;;;105.57;41.22;;;0.10;99.90;;;;;;5021597;28;20169;-73
2023/02/16 01:43:09;;;;;;;104.90;39.92;;;0.20;99.90;;;;;;5047117;28;20507;-74
2023/02/16 01:45:41;;;;;;;97.85;40.70;;;0.20;99.90;;;;;;5012430;28;20049;-73
2023/02/16 01:48:26;;;;;;;102.45;40.42;;;0.20;99.90;;;;;;5025932;28;20350;-74
2023/02/16 01:51:25;;;;;;;102.72;40.90;;;0.00;99.90;;;;;;5027571;28;20042;-73
2023/02/16 01:54:32;;;;;;;93.57;39.80;;;0.10;99.90;;;;;;5007879;28;20041;-73
2023/02/16 01:57:17;;;;;;;109.63;41.30;;;0.10;99.90;;;;;;5010416;28;20072;-74
2023/02/16 01:59:44;;;;;;;106.68;40.53;;;0.10;99.90;;;;;;5011673;28;20077;-73
2023/02/16 02:02:18;;;;;;;106.78;40.92;;;0.10;99.90;;;;;;5014314;28;20404;-74
2023/02/16 02:07:53;;;;;;;106.63;41.28;;;0.20;99.90;;;;;;5011154;28;20569;-73
2023/02/16 02:10:48;;;;;;;97.25;38.97;;;0.10;99.90;;;;;;5013826;28;20456;-73
2023/02/16 02:13:27;;;;;;;89.10;37.60;;;0.10;99.90;;;;;;4992069;28;20053;-73
2023/02/16 02:15:58;;;;;;;99.60;39.63;;;0.00;99.90;;;;;;5016901;28;20063;-73
2023/02/16 02:18:25;;;;;;;97.15;40.97;;;0.00;99.90;;;;;;5005912;28;20055;-73
2023/02/16 02:24:10;;;;;;;99.72;40.33;;;-0.20;99.90;;;;;;5014110;28;20087;-73
2023/02/16 02:26:46;;;;;;;103.32;40.85;;;-0.20;99.90;;;;;;5023311;28;20131;-73
2023/02/16 02:29:26;;;;;;;101.03;40.72;;;-0.20;99.90;;;;;;5016307;28;20044;-73
2023/02/16 02:32:05;;;;;;;99.45;41.58;;;-0.20;99.90;;;;;;5013433;28;20678;-73
2023/02/16 02:35:00;;;;;;;104.75;39.97;;;-0.20;99.90;;;;;;5025698;28;20407;-73
2023/02/16 02:37:51;;;;;;;105.30;40.20;;;-0.30;99.90;;;;;;5003987;28;20167;-73
2023/02/16 02:40:40;;;;;;;93.22;38.42;;;-0.30;99.90;;;;;;5006489;28;20053;-73
2023/02/16 02:43:19;;;;;;;96.95;40.22;;;-0.30;99.90;;;;;;5017086;28;20139;-73
2023/02/16 02:46:15;;;;;;;102.85;39.50;;;-0.30;99.90;;;;;;5012868;28;20333;-73
2023/02/16 02:48:42;;;;;;;99.35;40.10;;;-0.40;99.90;;;;;;5012579;28;21030;-74
2023/02/16 02:51:29;;;;;;;105.78;39.58;;;-0.40;99.90;;;;;;5011674;28;20045;-74
2023/02/16 03:03:08;;;;;;;90.25;36.08;;;-0.60;99.90;;;;;;5002301;28;20060;-73
2023/02/16 03:05:37;;;;;;;99.13;37.53;;;-0.70;99.90;;;;;;5005520;28;20073;-74
2023/02/16 03:08:13;;;;;;;103.45;40.80;;;-0.80;99.90;;;;;;5013336;28;20059;-73
2023/02/16 03:13:36;;;;;;;103.22;42.50;;;-0.70;99.90;;;;;;5025399;28;20088;-73
2023/02/16 03:16:12;;;;;;;106.35;39.88;;;-0.70;99.90;;;;;;5024589;28;20046;-74
2023/02/16 03:29:54;;;;;;;98.40;38.60;;;-1.00;99.90;;;;;;5031043;28;20033;-72
2023/02/16 03:32:21;;;;;;;109.68;38.53;;;-0.90;99.90;;;;;;5005552;28;20042;-72
2023/02/16 03:34:48;;;;;;;113.60;40.13;;;-1.00;99.90;;;;;;5032586;28;20065;-72
2023/02/16 03:37:15;;;;;;;108.22;39.72;;;-1.00;99.90;;;;;;5039616;28;20220;-72
2023/02/16 03:42:27;;;;;;;97.53;39.85;;;-1.10;99.90;;;;;;5034275;28;20049;-72
2023/02/16 03:44:53;;;;;;;106.32;39.70;;;-1.00;99.90;;;;;;5033136;28;20041;-72
2023/02/16 03:47:20;;;;;;;115.70;40.13;;;-1.00;99.90;;;;;;5023367;28;20526;-72
2023/02/16 03:49:47;;;;;;;115.32;41.55;;;-1.10;99.90;;;;;;5024552;28;20142;-72
2023/02/16 03:52:13;;;;;;;106.65;40.63;;;-1.10;99.90;;;;;;5016938;28;20131;-72
2023/02/16 03:54:40;;;;;;;107.25;41.15;;;-1.10;99.90;;;;;;5033546;28;20052;-72
2023/02/16 03:57:07;;;;;;;104.63;40.85;;;-1.00;99.90;;;;;;5026114;28;20567;-74
2023/02/16 03:59:33;;;;;;;92.85;37.10;;;-0.90;99.90;;;;;;5022132;28;20451;-74
2023/02/16 04:02:00;;;;;;;98.65;37.83;;;-1.00;99.90;;;;;;5036098;28;20321;-74
2023/02/16 04:04:27;;;;;;;109.32;37.25;;;-1.10;99.90;;;;;;5000767;28;20036;-74
2023/02/16 04:06:53;;;;;;;97.45;37.40;;;-1.10;99.90;;;;;;5034491;28;20070;-74
2023/02/16 04:09:20;;;;;;;101.07;38.22;;;-1.00;99.90;;;;;;5033424;28;20232;-74
2023/02/16 04:14:32;;;;;;;108.53;35.83;;;-1.00;99.90;;;;;;5024397;28;20045;-74
2023/02/16 04:16:59;;;;;;;94.88;37.63;;;-1.00;99.90;;;;;;5026778;28;20427;-74
2023/02/16 04:19:26;;;;;;;95.63;38.65;;;-1.00;99.90;;;;;;5028608;28;20073;-73
2023/02/16 04:21:52;;;;;;;102.28;36.40;;;-1.00;99.90;;;;;;5026117;23;20052;-77
2023/02/16 04:24:19;;;;;;;93.20;36.72;;;-1.00;99.90;;;;;;5018448;28;20536;-76
2023/02/16 04:26:48;;;;;;;84.55;35.25;;;-1.10;99.90;;;;;;5021119;28;20064;-78
2023/02/16 04:29:14;;;;;;;100.60;37.47;;;-1.10;99.90;;;;;;5053921;28;20413;-77
2023/02/16 04:31:41;;;;;;;113.63;39.22;;;-1.10;99.90;;;;;;5034705;28;20143;-76
2023/02/16 04:34:08;;;;;;;90.65;36.67;;;-1.30;99.90;;;;;;5049573;28;20226;-76
2023/02/16 04:36:35;;;;;;;93.45;36.33;;;-1.30;99.90;;;;;;5048667;28;20242;-77
2023/02/16 04:39:02;;;;;;;100.90;36.90;;;-1.30;99.90;;;;;;5032365;28;20037;-73
2023/02/16 04:41:29;;;;;;;88.07;37.35;;;-1.20;99.90;;;;;;5058556;28;20053;-75
2023/02/16 04:43:55;;;;;;;98.95;39.65;;;-1.30;99.90;;;;;;5035619;28;20039;-74
2023/02/16 04:46:22;;;;;;;91.88;36.88;;;-1.40;99.90;;;;;;5047012;28;20042;-77
2023/02/16 04:48:49;;;;;;;111.22;38.67;;;-1.30;99.90;;;;;;5033911;28;20035;-77
2023/02/16 04:51:16;;;;;;;96.40;39.30;;;-1.40;99.90;;;;;;5042101;28;20139;-77
2023/02/16 04:53:43;;;;;;;95.10;36.95;;;-1.50;99.90;;;;;;5059464;28;21407;-76
2023/02/16 04:56:11;;;;;;;87.47;36.88;;;-1.50;99.90;;;;;;5042850;28;20044;-77
2023/02/16 04:58:38;;;;;;;87.65;36.97;;;-1.50;99.90;;;;;;5046207;28;20572;-77
2023/02/16 05:01:05;;;;;;;88.90;37.10;;;-1.60;99.90;;;;;;5042171;28;20048;-77
2023/02/16 05:03:32;;;;;;;85.75;37.80;;;-1.70;99.90;;;;;;5038697;28;20059;-77
2023/02/16 05:05:59;;;;;;;86.82;35.90;;;-1.70;99.90;;;;;;5058936;28;20068;-75
2023/02/16 05:08:26;;;;;;;85.75;37.60;;;-1.80;99.90;;;;;;5061978;28;20052;-74
2023/02/16 05:16:23;;;;;;;94.85;38.95;;;-1.80;99.90;;;;;;5044431;28;20424;-76
2023/02/16 05:18:50;;;;;;;97.40;40.45;;;-1.80;99.90;;;;;;5033408;28;20214;-76
2023/02/16 05:21:34;;;;;;;106.65;40.53;;;-1.80;99.90;;;;;;5046147;28;20036;-76
2023/02/16 05:24:06;;;;;;;89.93;39.78;;;-1.70;99.90;;;;;;5057908;28;20050;-76
2023/02/16 05:26:34;;;;;;;97.90;36.08;;;-1.70;99.90;;;;;;5039963;28;20502;-77
2023/02/16 05:29:02;;;;;;;95.88;38.22;;;-1.70;99.90;;;;;;5052917;28;20040;-78
2023/02/16 05:31:29;;;;;;;95.63;40.47;;;-1.70;99.90;;;;;;5052408;28;20494;-76
2023/02/16 05:33:56;;;;;;;99.00;38.60;;;-1.70;99.90;;;;;;5036396;28;20040;-76
2023/02/16 05:36:23;;;;;;;95.15;39.88;;;-1.70;99.90;;;;;;5041654;28;20237;-78
2023/02/16 05:38:50;;;;;;;105.57;40.83;;;-1.70;99.90;;;;;;5030883;28;20079;-76
2023/02/16 05:41:22;;;;;;;99.05;39.05;;;-1.60;99.90;;;;;;5065762;28;20262;-77
2023/02/16 05:43:54;;;;;;;91.72;38.53;;;-1.60;99.90;;;;;;5053595;28;20037;-77
2023/02/16 05:46:22;;;;;;;94.55;38.03;;;-1.60;99.90;;;;;;5046850;28;20037;-76
2023/02/16 05:48:50;;;;;;;93.28;38.33;;;-1.60;99.90;;;;;;5032786;28;20547;-75
2023/02/16 05:51:18;;;;;;;91.40;37.10;;;-1.50;99.90;;;;;;5044194;28;20046;-76
2023/02/16 05:53:45;;;;;;;101.07;41.97;;;-1.50;99.90;;;;;;5060892;28;20052;-76
2023/02/16 05:56:12;;;;;;;107.85;42.03;;;-1.40;99.90;;;;;;5043707;28;20047;-77
2023/02/16 05:58:39;;;;;;;102.60;43.75;;;-1.40;99.90;;;;;;5027184;28;20045;-77
2023/02/16 06:01:05;;;;;;;78.20;31.48;;;-1.30;99.90;;;;;;5024506;28;20359;-76
2023/02/16 06:03:32;;;;;;;102.38;41.67;;;-1.30;99.90;;;;;;5044585;28;20060;-76
2023/02/16 06:06:00;;;;;;;90.28;36.92;;;-1.30;99.90;;;;;;5043138;28;20160;-76
2023/02/16 06:08:28;;;;;;;101.28;40.88;;;-1.20;99.90;;;;;;5040663;28;20478;-76
2023/02/16 06:10:55;;;;;;;97.20;42.47;;;-1.20;99.90;;;;;;5041089;28;20090;-76
2023/02/16 06:13:22;;;;;;;93.93;39.60;;;-1.30;99.90;;;;;;5037559;28;20044;-77
2023/02/16 06:15:54;;;;;;;92.53;39.35;;;-1.20;99.90;;;;;;5053530;28;20547;-74
2023/02/16 06:18:22;;;;;;;105.32;42.97;;;-1.40;99.90;;;;;;5041198;28;20148;-76
2023/02/16 06:20:50;;;;;;;97.53;41.05;;;-1.40;99.90;;;;;;5017586;28;20144;-76
2023/02/16 06:23:17;;;;;;;107.20;45.10;;;-1.40;99.90;;;;;;5040538;28;20054;-75
2023/02/16 06:25:47;;;;;;;99.70;43.67;;;-1.40;99.90;;;;;;5061762;28;20066;-75
2023/02/16 06:28:14;;;;;;;88.40;41.35;;;-1.50;99.90;;;;;;5033127;28;20051;-75
2023/02/16 06:30:41;;;;;;;102.40;44.97;;;-1.50;99.90;;;;;;5062500;28;20044;-75
2023/02/16 06:33:08;;;;;;;97.38;42.40;;;-1.50;99.90;;;;;;5025354;28;20055;-75
2023/02/16 06:35:34;;;;;;;101.00;45.47;;;-1.60;99.90;;;;;;5039062;28;21051;-75
2023/02/16 06:38:01;;;;;;;103.68;46.97;;;-1.60;99.90;;;;;;5031009;28;20040;-76
2023/02/16 06:40:28;;;;;;;90.30;41.67;;;-1.70;99.90;;;;;;5069602;28;20047;-77
2023/02/16 06:42:54;;;;;;;91.30;40.05;;;-1.70;99.90;;;;;;5044060;28;20514;-75
2023/02/16 06:45:21;;;;;;;77.82;37.97;;;-1.80;99.90;;;;;;5043844;28;20268;-75
2023/02/16 06:47:48;;;;;;;145.00;67.93;;;-1.90;99.90;;;;;;5041379;28;20075;-75
2023/02/16 06:50:16;;;;;;;120.25;49.88;;;-1.80;99.90;;;;;;5041653;28;20128;-74
2023/02/16 06:52:43;;;;;;;84.30;36.58;;;-1.70;99.90;;;;;;5028954;28;21478;-76
2023/02/16 06:55:09;;;;;;;82.57;37.28;;;-1.60;99.90;;;;;;5041975;28;20124;-75
2023/02/16 06:57:36;;;;;;;81.03;36.60;;;-1.50;99.90;;;;;;5043040;28;20040;-75
2023/02/16 07:00:05;;;;;;;90.25;36.30;;;-1.40;99.90;;;;;;5040971;28;20052;-74
2023/02/16 07:02:31;;;;;;;89.38;40.72;;;-1.40;99.90;;;;;;5037943;28;20033;-76
2023/02/16 07:04:58;;;;;;;90.30;38.75;;;-1.30;99.90;;;;;;5023746;28;20041;-76
2023/02/16 07:07:25;;;;;;;94.95;39.58;;;-1.30;99.90;;;;;;5040596;28;20044;-75
2023/02/16 07:09:51;;;;;;;95.53;41.85;;;-1.30;99.90;;;;;;5040065;28;20129;-74
2023/02/16 07:12:18;;;;;;;89.40;40.55;;;-1.30;99.90;;;;;;5064129;28;20493;-74
2023/02/16 07:14:44;;;;;;;83.35;40.08;;;-1.40;99.90;;;;;;5029571;28;20048;-75
2023/02/16 07:17:11;;;;;;;89.20;40.50;;;-1.40;99.90;;;;;;5043235;28;20043;-75
2023/02/16 07:19:38;;;;;;;80.07;39.70;;;-1.50;99.90;;;;;;5060401;28;20056;-76
2023/02/16 07:22:04;;;;;;;81.07;39.83;;;-1.40;99.90;;;;;;5045442;28;20151;-75
2023/02/16 07:24:31;;;;;;;84.22;41.33;;;-1.30;99.90;;;;;;5041735;28;20063;-75
2023/02/16 07:26:58;;;;;;;83.80;40.83;;;-1.20;99.90;;;;;;5037950;28;20045;-76
2023/02/16 07:29:24;;;;;;;86.70;42.00;;;-1.30;99.90;;;;;;5029944;28;20514;-78
2023/02/16 07:31:52;;;;;;;93.25;42.75;;;-1.30;99.90;;;;;;5041320;28;20111;-77
2023/02/16 07:34:19;;;;;;;217.93;56.58;;;-1.20;99.90;;;;;;5038395;28;20048;-74
2023/02/16 07:36:47;;;;;;;96.40;42.35;;;-1.10;99.90;;;;;;5048952;28;20132;-79
2023/02/16 07:39:14;;;;;;;123.07;55.53;;;-1.00;99.90;;;;;;5045107;28;20048;-74
2023/02/16 07:41:41;;;;;;;155.15;70.60;;;-1.00;99.90;;;;;;5027212;28;20054;-78
2023/02/16 07:44:08;;;;;;;88.07;41.65;;;-0.90;99.90;;;;;;5045393;28;20044;-75
2023/02/16 07:46:34;;;;;;;82.18;39.22;;;-0.90;99.90;;;;;;5048754;28;20147;-73
2023/02/16 07:49:01;;;;;;;90.70;37.22;;;-0.70;99.90;;;;;;5034240;28;20051;-76
2023/02/16 07:51:29;;;;;;;78.75;39.38;;;-0.70;99.90;;;;;;5047886;28;20050;-74
2023/02/16 07:53:58;;;;;;;81.85;38.03;;;-0.60;99.90;;;;;;5044638;28;20047;-74
2023/02/16 07:56:27;;;;;;;81.03;38.88;;;-0.40;99.90;;;;;;5037757;28;20120;-77
2023/02/16 07:58:55;;;;;;;78.00;38.65;;;-0.30;99.90;;;;;;5043572;28;20037;-76
2023/02/16 08:01:23;;;;;;;91.90;40.40;;;-0.20;99.90;;;;;;5022799;28;20033;-76
2023/02/16 08:03:50;;;;;;;77.78;37.67;;;-0.10;99.90;;;;;;5022836;28;20135;-77
2023/02/16 08:06:18;;;;;;;77.45;37.92;;;0.00;99.90;;;;;;5029036;28;20040;-75
2023/02/16 08:08:45;;;;;;;78.35;39.33;;;0.10;99.90;;;;;;5023066;28;20048;-75
2023/02/16 08:11:16;;;;;;;72.95;35.40;;;0.20;99.90;;;;;;5025208;28;20033;-76
2023/02/16 08:13:43;;;;;;;81.20;37.67;;;0.30;99.90;;;;;;5044991;28;20040;-78
2023/02/16 08:16:18;;;;;;;76.95;37.67;;;0.40;99.90;;;;;;5026352;28;20576;-75
2023/02/16 08:18:45;;;;;;;72.28;34.03;;;0.60;99.90;;;;;;5036258;28;20067;-76
2023/02/16 08:21:23;;;;;;;72.78;37.42;;;0.70;99.90;;;;;;5043298;28;20044;-75
2023/02/16 08:23:57;;;;;;;78.15;36.65;;;0.90;99.90;;;;;;5023121;28;20111;-75
2023/02/16 08:26:27;;;;;;;70.10;35.50;;;1.00;99.90;;;;;;5035596;28;20044;-77
2023/02/16 08:28:56;;;;;;;72.28;37.75;;;1.10;99.90;;;;;;5038515;28;20115;-74
2023/02/16 08:31:28;;;;;;;66.57;36.67;;;1.30;99.90;;;;;;5039768;28;20036;-78
2023/02/16 08:33:58;;;;;;;65.82;38.10;;;1.40;99.90;;;;;;5044815;28;20064;-78
2023/02/16 08:36:33;;;;;;;67.18;36.17;;;1.60;99.90;;;;;;5038079;28;20114;-78
2023/02/16 08:39:03;;;;;;;60.58;33.63;;;1.90;99.90;;;;;;5020627;28;20139;-75
2023/02/16 08:41:32;;;;;;;56.97;31.92;;;2.20;99.90;;;;;;5024542;28;20055;-75
2023/02/16 08:44:00;;;;;;;56.75;32.80;;;2.50;99.90;;;;;;5048787;28;20044;-75
2023/02/16 08:46:28;;;;;;;52.67;32.40;;;2.70;99.90;;;;;;5026267;28;20071;-75
2023/02/16 08:48:58;;;;;;;49.65;31.77;;;2.90;99.90;;;;;;5045150;28;20044;-75
2023/02/16 08:51:27;;;;;;;43.45;29.67;;;3.30;99.90;;;;;;5045707;28;20043;-77
2023/02/16 08:53:54;;;;;;;45.47;32.88;;;3.70;99.90;;;;;;5045771;28;20048;-75
2023/02/16 08:56:22;;;;;;;50.13;35.28;;;4.00;99.90;;;;;;5052284;28;20050;-75
2023/02/16 08:58:49;;;;;;;45.53;35.95;;;4.00;99.90;;;;;;5050384;28;20049;-75
2023/02/16 09:01:16;;;;;;;47.97;35.67;;;3.80;99.90;;;;;;5029197;28;20518;-74
2023/02/16 09:03:44;;;;;;;44.22;33.60;;;3.60;99.90;;;;;;5040330;28;20738;-74
2023/02/16 09:06:14;;;;;;;48.00;32.83;;;3.50;99.90;;;;;;5046619;28;20118;-74
2023/02/16 09:08:41;;;;;;;49.42;35.80;;;3.50;99.90;;;;;;5041615;28;20042;-74
2023/02/16 09:11:12;;;;;;;47.35;34.53;;;3.50;99.90;;;;;;5044489;28;20040;-75
2023/02/16 09:13:43;;;;;;;46.90;33.30;;;3.50;99.90;;;;;;5036733;28;20047;-75
2023/02/16 09:16:12;;;;;;;49.38;34.35;;;3.70;99.90;;;;;;5044952;28;20041;-75
2023/02/16 09:18:39;;;;;;;48.35;33.30;;;3.70;99.90;;;;;;5039928;28;20108;-75
2023/02/16 09:21:10;;;;;;;48.45;34.20;;;3.80;99.90;;;;;;5044632;28;20048;-75
2023/02/16 09:23:38;;;;;;;47.50;34.53;;;4.00;99.90;;;;;;5045548;28;20589;-75
2023/02/16 09:26:08;;;;;;;43.22;31.80;;;4.00;99.90;;;;;;5045073;28;20036;-75
2023/02/16 09:28:37;;;;;;;50.15;35.88;;;3.90;99.90;;;;;;5048780;28;20048;-74
2023/02/16 09:31:12;;;;;;;46.33;33.22;;;3.80;99.90;;;;;;5049862;28;20090;-76
2023/02/16 09:33:40;;;;;;;45.35;33.75;;;3.80;99.90;;;;;;5056623;28;20049;-75
2023/02/16 09:36:10;;;;;;;48.25;35.75;;;3.70;99.90;;;;;;5040077;28;20041;-74
2023/02/16 09:38:42;;;;;;;43.25;32.55;;;3.70;99.90;;;;;;5062375;28;20059;-75
2023/02/16 09:41:29;;;;;;;45.80;35.13;;;3.70;99.90;;;;;;5023225;28;20055;-75
2023/02/16 09:44:14;;;;;;;47.67;33.58;;;3.80;99.90;;;;;;5044567;28;20073;-74
2023/02/16 09:46:41;;;;;;;46.33;32.63;;;3.90;99.90;;;;;;5048449;28;20066;-73
2023/02/16 09:49:33;;;;;;;45.92;33.65;;;4.00;99.90;;;;;;5061272;28;20106;-73
2023/02/16 09:52:27;;;;;;;43.22;32.90;;;4.00;99.90;;;;;;5057073;28;20068;-76
2023/02/16 09:54:56;;;;;;;48.33;35.85;;;4.00;99.90;;;;;;5065520;28;20126;-76
2023/02/16 09:58:02;;;;;;;48.90;35.30;;;4.10;99.90;;;;;;5049749;28;20041;-72
2023/02/16 10:00:31;;;;;;;41.60;34.90;;;4.40;99.90;;;;;;5054372;28;20087;-74
2023/02/16 10:03:27;;;;;;;43.72;34.33;;;4.40;99.90;;;;;;5029196;28;20087;-77
2023/02/16 10:06:06;;;;;;;43.25;35.40;;;4.50;99.90;;;;;;5056451;28;20164;-76
2023/02/16 10:08:49;;;;;;;49.83;35.95;;;4.50;99.90;;;;;;5039691;28;20551;-74
2023/02/16 10:11:37;;;;;;;40.25;33.13;;;4.60;99.90;;;;;;5064696;28;20081;-74
2023/02/16 10:14:12;;;;;;;41.42;34.47;;;4.60;99.90;;;;;;5027016;28;20476;-75
2023/02/16 10:16:49;;;;;;;41.95;34.92;;;4.80;99.90;;;;;;5037008;28;20052;-74
2023/02/16 10:19:48;;;;;;;44.10;36.38;;;4.80;99.90;;;;;;5060245;28;20052;-74
2023/02/16 10:22:26;;;;;;;47.00;36.58;;;4.80;99.90;;;;;;5018766;28;20084;-74
2023/02/16 10:25:28;;;;;;;38.50;34.35;;;4.70;99.90;;;;;;5041817;28;20049;-75
2023/02/16 10:28:19;;;;;;;42.58;35.03;;;4.80;99.90;;;;;;5045878;28;20043;-75
2023/02/16 10:31:09;;;;;;;42.85;35.33;;;4.80;99.90;;;;;;5043592;28;20050;-73
2023/02/16 10:33:40;;;;;;;39.70;33.70;;;4.80;99.90;;;;;;5026361;28;20056;-73
2023/02/16 10:36:40;;;;;;;39.58;32.20;;;4.80;99.90;;;;;;5048368;28;20128;-75
2023/02/16 10:39:21;;;;;;;40.45;34.08;;;4.70;99.90;;;;;;5042899;28;20052;-76
2023/02/16 10:42:00;;;;;;;45.90;34.67;;;4.80;99.90;;;;;;5037678;28;20525;-73
2023/02/16 10:44:38;;;;;;;41.80;34.08;;;5.00;99.90;;;;;;5058742;28;20040;-74
2023/02/16 10:47:14;;;;;;;42.72;34.85;;;5.20;99.90;;;;;;5062246;28;20048;-75
2023/02/16 10:49:41;;;;;;;40.22;35.67;;;5.40;99.90;;;;;;5047282;28;20047;-75
2023/02/16 10:52:09;;;;;;;40.67;35.63;;;5.60;99.90;;;;;;5042487;28;20519;-74
2023/02/16 10:54:36;;;;;;;40.45;35.25;;;5.70;99.90;;;;;;5035197;28;20048;-73
2023/02/16 10:57:05;;;;;;;39.75;35.55;;;5.70;99.90;;;;;;5032266;28;20032;-75
2023/02/16 10:59:38;;;;;;;39.25;35.22;;;5.90;99.90;;;;;;5023417;28;20634;-73
2023/02/16 11:02:18;;;;;;;40.30;35.92;;;6.00;99.90;;;;;;5040556;28;20040;-76
2023/02/16 11:04:48;;;;;;;38.60;34.72;;;6.00;99.90;;;;;;5037582;28;20048;-76
2023/02/16 11:07:17;;;;;;;38.08;34.15;;;6.10;99.90;;;;;;5037960;28;20082;-76
2023/02/16 11:09:47;;;;;;;38.75;34.75;;;6.20;99.90;;;;;;5041440;28;20039;-74
2023/02/16 11:12:26;;;;;;;40.53;36.10;;;6.40;99.90;;;;;;5043105;28;20036;-74
2023/02/16 11:14:58;;;;;;;42.67;38.33;;;6.50;99.90;;;;;;5057162;28;20040;-75
2023/02/16 11:17:26;;;;;;;43.60;39.40;;;6.70;99.90;;;;;;5049246;28;20396;-76
2023/02/16 11:20:05;;;;;;;44.10;40.03;;;6.90;99.90;;;;;;5024900;28;20110;-73
2023/02/16 11:22:36;;;;;;;45.92;41.33;;;7.00;99.90;;;;;;5043133;28;20072;-76
2023/02/16 11:25:20;;;;;;;46.70;41.97;;;7.20;99.90;;;;;;5061376;28;20094;-74
2023/02/16 11:28:04;;;;;;;45.28;41.33;;;7.30;99.90;;;;;;5022818;28;20493;-74
2023/02/16 11:30:39;;;;;;;45.90;41.45;;;7.30;99.90;;;;;;5038366;28;20272;-73
2023/02/16 11:33:27;;;;;;;44.10;39.80;;;7.30;99.90;;;;;;5057954;28;20676;-75
2023/02/16 11:35:55;;;;;;;44.65;40.22;;;7.30;99.90;;;;;;5046718;28;20049;-76
2023/02/16 11:38:28;;;;;;;43.40;38.85;;;7.20;99.90;;;;;;5030759;28;20044;-75
2023/02/16 11:40:57;;;;;;;42.08;37.83;;;7.30;99.90;;;;;;5038437;28;20055;-74
2023/02/16 11:43:27;;;;;;;44.58;40.17;;;7.50;99.90;;;;;;5048601;28;20048;-73
2023/02/16 11:46:10;;;;;;;44.75;40.30;;;7.60;99.90;;;;;;5035730;28;20133;-75
2023/02/16 11:48:37;;;;;;;45.08;40.88;;;7.60;99.90;;;;;;5042205;28;20041;-75
2023/02/16 11:51:07;;;;;;;44.53;40.08;;;7.80;99.90;;;;;;5039757;28;20342;-75
2023/02/16 11:53:37;;;;;;;46.40;42.00;;;8.00;99.90;;;;;;5041482;28;20399;-76
2023/02/16 11:56:14;;;;;;;46.65;42.30;;;8.10;99.90;;;;;;5030912;28;20032;-77
2023/02/16 11:58:41;;;;;;;98.35;46.35;;;8.20;99.90;;;;;;5061612;28;20439;-74
2023/02/16 12:01:27;;;;;;;45.85;41.53;;;8.30;99.90;;;;;;5061359;28;20044;-75
2023/02/16 12:04:23;;;;;;;42.40;38.30;;;8.20;99.90;;;;;;5059870;28;20644;-72
2023/02/16 12:07:37;;;;;;;42.58;37.95;;;8.10;99.90;;;;;;5043879;28;20041;-73
2023/02/16 12:10:11;;;;;;;45.85;41.67;;;8.20;99.90;;;;;;4935986;28;20047;-74
2023/02/16 12:13:05;;;;;;;47.42;42.97;;;8.20;99.90;;;;;;5059451;28;20052;-73
2023/02/16 12:15:43;;;;;;;44.72;40.58;;;8.10;99.90;;;;;;5059930;28;20465;-76
2023/02/16 12:18:16;;;;;;;43.67;39.40;;;8.20;99.90;;;;;;5061311;28;20056;-76
2023/02/16 12:21:11;;;;;;;43.95;40.05;;;8.20;99.90;;;;;;5037610;28;20551;-75
2023/02/16 12:23:59;;;;;;;45.13;40.95;;;8.40;99.90;;;;;;5042394;28;20063;-74
2023/02/16 12:26:56;;;;;;;44.20;40.00;;;8.50;99.90;;;;;;5047641;28;20556;-74
2023/02/16 12:29:43;;;;;;;44.47;40.17;;;8.50;99.90;;;;;;5062626;28;20221;-72
2023/02/16 12:32:23;;;;;;;45.13;40.83;;;8.70;99.90;;;;;;5067146;28;20721;-77
2023/02/16 12:35:13;;;;;;;43.10;39.20;;;8.70;99.90;;;;;;5061394;28;20063;-74
2023/02/16 12:37:59;;;;;;;46.20;41.75;;;9.00;99.90;;;;;;5039333;28;20047;-73
2023/02/16 12:41:09;;;;;;;44.15;40.22;;;9.00;99.90;;;;;;5041093;28;20048;-76
2023/02/16 12:43:51;;;;;;;45.97;41.15;;;9.00;99.90;;;;;;5055147;28;20347;-75
2023/02/16 12:46:39;;;;;;;44.58;40.45;;;9.10;99.90;;;;;;5055963;28;20397;-73
2023/02/16 12:49:26;;;;;;;43.13;39.13;;;9.20;99.90;;;;;;5069996;28;20036;-74
2023/02/16 12:52:03;;;;;;;46.47;42.28;;;9.30;99.90;;;;;;5043293;28;20121;-73
2023/02/16 12:54:49;;;;;;;46.08;41.70;;;9.40;99.90;;;;;;5048416;28;20070;-73
2023/02/16 12:57:22;;;;;;;44.58;40.38;;;9.60;99.90;;;;;;5060178;28;20409;-72
2023/02/16 13:00:17;;;;;;;44.53;40.65;;;9.60;99.90;;;;;;5042583;28;20047;-72
2023/02/16 13:02:50;;;;;;;44.45;40.50;;;9.70;99.90;;;;;;5059259;28;20043;-76
2023/02/16 13:05:29;;;;;;;47.28;42.95;;;9.80;99.90;;;;;;5060110;28;20135;-74
2023/02/16 13:08:05;;;;;;;45.40;41.20;;;9.80;99.90;;;;;;5061507;28;20405;-74
2023/02/16 13:10:56;;;;;;;43.47;39.28;;;9.80;99.90;;;;;;5042836;28;20267;-73
2023/02/16 13:13:28;;;;;;;44.30;40.20;;;9.70;99.90;;;;;;5048713;28;20064;-74
2023/02/16 13:16:16;;;;;;;48.53;43.72;;;9.80;99.90;;;;;;5059241;28;20053;-74
2023/02/16 13:18:56;;;;;;;45.05;40.85;;;9.80;99.90;;;;;;5061299;28;20048;-70
2023/02/16 13:21:51;;;;;;;45.42;41.05;;;9.80;99.90;;;;;;5042635;28;20488;-74
2023/02/16 13:24:35;;;;;;;47.03;42.70;;;9.90;99.90;;;;;;5041549;28;20052;-72
2023/02/16 13:27:05;;;;;;;48.53;43.88;;;9.80;99.90;;;;;;5042929;28;20494;-72
2023/02/16 13:29:59;;;;;;;47.95;43.45;;;9.90;99.90;;;;;;5047555;28;20269;-74
2023/02/16 13:32:45;;;;;;;45.88;41.17;;;9.90;99.90;;;;;;5060995;28;20571;-73
2023/02/16 13:35:11;;;;;;;44.92;40.35;;;10.00;99.90;;;;;;5057741;28;20442;-73
2023/02/16 13:37:48;;;;;;;46.80;41.95;;;10.00;99.90;;;;;;5060360;28;20040;-73
2023/02/16 13:40:24;;;;;;;44.65;40.22;;;10.00;99.90;;;;;;5045602;28;20072;-74
2023/02/16 13:43:00;;;;;;;46.72;42.40;;;10.20;99.90;;;;;;5049752;28;20044;-74
2023/02/16 13:45:30;;;;;;;52.67;47.67;;;10.30;99.90;;;;;;5044691;28;20048;-74
2023/02/16 13:47:58;;;;;;;53.78;48.70;;;10.30;99.90;;;;;;5048243;28;20048;-73
2023/02/16 13:50:30;;;;;;;58.50;52.70;;;10.40;99.90;;;;;;5045608;28;20037;-73